Time;durP1;ratioP1;P1;durP2;ratioP2;P2;SDS_P1;SDS_P2;PMS_P1;PMS_P2;Temp;Humidity;BMP_temperature;BMP_pressure;BME280_temperature;BME280_humidity;BME280_pressure;Samples;Min_cycle;Max_cycle;Signal;HPM_P1;HPM_P2
2023/12/07 00:00:19;;;;;;;1.07;1.07;;;;;;;6.40;100.00;99080.44;5073134;28;20227;-66
2023/12/07 00:02:55;;;;;;;1.13;1.13;;;;;;;6.39;100.00;99076.19;5075579;28;20204;-66
2023/12/07 00:10:48;;;;;;;1.30;1.30;;;;;;;6.41;100.00;99077.00;5072609;28;20564;-66
2023/12/07 00:13:23;;;;;;;1.00;1.00;;;;;;;6.39;100.00;99083.84;5072683;28;20286;-65
2023/12/07 00:16:29;;;;;;;1.97;1.60;;;;;;;6.38;100.00;99087.22;5074619;28;20192;-65
2023/12/07 00:19:15;;;;;;;1.53;1.53;;;;;;;6.34;100.00;99087.28;5067421;28;20309;-65
2023/12/07 00:21:50;;;;;;;1.43;1.43;;;;;;;6.33;100.00;99090.69;5070649;28;20200;-66
2023/12/07 00:24:20;;;;;;;1.93;1.83;;;;;;;6.29;100.00;99084.00;5072387;28;20199;-65
2023/12/07 00:26:55;;;;;;;3.07;2.97;;;;;;;6.28;100.00;99079.78;5078539;28;20210;-66
2023/12/07 00:29:30;;;;;;;1.07;1.07;;;;;;;6.14;100.00;99052.91;5073977;28;20306;-66
2023/12/07 00:32:03;;;;;;;1.53;1.53;;;;;;;6.29;100.00;99076.38;5068581;28;20195;-65
2023/12/07 00:35:08;;;;;;;1.90;1.90;;;;;;;6.29;100.00;99078.91;5068530;28;20207;-65
2023/12/07 00:37:48;;;;;;;1.80;1.70;;;;;;;6.29;100.00;99078.91;5019510;28;20311;-65
2023/12/07 00:40:24;;;;;;;1.03;1.00;;;;;;;6.23;100.00;99079.03;5052250;28;20200;-65
2023/12/07 00:42:56;;;;;;;2.97;2.93;;;;;;;6.27;100.00;99088.25;5051984;28;20196;-65
2023/12/07 00:45:36;;;;;;;1.87;1.60;;;;;;;6.28;100.00;99086.56;5052155;28;20284;-65
2023/12/07 00:48:11;;;;;;;2.73;2.63;;;;;;;6.23;100.00;99089.22;5052516;28;20220;-65
2023/12/07 00:50:47;;;;;;;1.10;1.10;;;;;;;6.21;100.00;99090.91;5052283;28;20200;-65
2023/12/07 00:53:34;;;;;;;2.17;2.17;;;;;;;6.17;100.00;99084.19;5051769;28;20287;-65
2023/12/07 00:56:16;;;;;;;1.50;1.50;;;;;;;6.18;100.00;99088.44;5054059;28;20203;-65
2023/12/07 00:58:47;;;;;;;4.30;2.47;;;;;;;6.20;100.00;99091.78;5052045;28;20205;-65
2023/12/07 01:01:28;;;;;;;1.60;1.60;;;;;;;6.20;100.00;99094.31;5054362;28;20200;-65
2023/12/07 01:04:08;;;;;;;1.60;1.57;;;;;;;6.19;100.00;99085.03;5051684;28;20209;-65
2023/12/07 01:06:40;;;;;;;0.77;0.77;;;;;;;6.22;100.00;99091.75;5052237;28;20621;-65
2023/12/07 01:09:13;;;;;;;1.70;1.70;;;;;;;6.18;100.00;99085.88;5052785;28;20569;-65
2023/12/07 01:11:53;;;;;;;1.10;1.10;;;;;;;6.20;100.00;99094.31;5052524;28;20227;-65
2023/12/07 01:14:32;;;;;;;1.80;1.70;;;;;;;6.14;100.00;99089.34;5051748;28;20232;-65
2023/12/07 01:17:04;;;;;;;2.27;2.23;;;;;;;6.14;100.00;99079.16;5055103;28;20196;-66
2023/12/07 01:19:46;;;;;;;0.83;0.83;;;;;;;6.14;100.00;99081.72;5055595;28;20201;-65
2023/12/07 01:25:09;;;;;;;2.20;2.10;;;;;;;6.13;100.00;99077.50;5050591;28;20718;-65
2023/12/07 01:27:49;;;;;;;5.63;1.80;;;;;;;6.13;100.00;99067.31;5053744;28;20227;-65
2023/12/07 01:35:58;;;;;;;0.77;0.77;;;;;;;6.15;100.00;99070.66;5049807;28;20212;-65
2023/12/07 01:38:57;;;;;;;4.37;1.93;;;;;;;6.16;100.00;99072.34;5031137;28;20209;-65
2023/12/07 01:44:21;;;;;;;0.90;0.90;;;;;;;6.18;100.00;99062.97;5030058;28;20205;-66
2023/12/07 01:49:58;;;;;;;2.20;1.37;;;;;;;6.16;100.00;99063.88;5026614;28;20231;-65
2023/12/07 01:52:29;;;;;;;1.17;1.17;;;;;;;6.12;100.00;99060.56;5023032;28;20197;-66
2023/12/07 01:55:13;;;;;;;0.87;0.87;;;;;;;6.12;100.00;99069.88;5031250;28;20263;-65
2023/12/07 02:00:41;;;;;;;2.50;2.50;;;;;;;6.13;100.00;99069.88;5026493;28;20676;-65
2023/12/07 02:09:15;;;;;;;1.00;1.00;;;;;;;6.20;100.00;99075.69;5029526;28;20319;-65
2023/12/07 02:11:51;;;;;;;0.97;0.97;;;;;;;6.20;100.00;99083.34;5031229;28;20205;-65
2023/12/07 02:14:48;;;;;;;1.40;1.40;;;;;;;6.19;100.00;99082.47;5030703;28;20293;-65
2023/12/07 02:17:51;;;;;;;1.40;1.40;;;;;;;6.19;100.00;99074.00;5026154;28;20292;-65
2023/12/07 02:20:56;;;;;;;1.60;0.90;;;;;;;6.22;100.00;99072.25;5030616;28;20193;-65
2023/12/07 02:23:26;;;;;;;1.67;1.67;;;;;;;6.16;100.00;99062.19;5027066;28;20197;-65
2023/12/07 02:26:37;;;;;;;1.37;1.37;;;;;;;6.24;100.00;99075.59;5030723;28;20636;-65
2023/12/07 02:29:19;;;;;;;2.93;1.43;;;;;;;6.23;100.00;99079.03;5029428;28;20722;-65
2023/12/07 02:34:47;;;;;;;0.70;0.70;;;;;;;6.01;100.00;99076.88;5028369;28;20269;-65
2023/12/07 02:37:24;;;;;;;0.80;0.80;;;;;;;5.99;100.00;99074.34;5052569;28;20220;-65
2023/12/07 02:40:00;;;;;;;7.00;1.70;;;;;;;6.05;100.00;99069.16;5075879;28;20613;-66
2023/12/07 02:48:18;;;;;;;0.80;0.80;;;;;;;6.06;100.00;99075.94;5072617;28;20196;-65
2023/12/07 02:50:54;;;;;;;2.63;2.43;;;;;;;6.07;100.00;99079.31;5077069;28;20203;-65
2023/12/07 02:53:23;;;;;;;1.87;1.70;;;;;;;6.11;100.00;99069.03;5080098;28;20199;-65
2023/12/07 03:01:43;;;;;;;0.97;0.97;;;;;;;6.17;100.00;99053.66;5078139;28;20208;-65
2023/12/07 03:04:32;;;;;;;1.20;1.20;;;;;;;6.13;100.00;99057.16;5074349;28;20246;-65
2023/12/07 03:07:15;;;;;;;1.70;1.70;;;;;;;6.16;100.00;99057.09;5073674;28;20200;-66
2023/12/07 03:09:56;;;;;;;1.40;1.40;;;;;;;6.14;100.00;99058.00;5073827;28;20314;-65
2023/12/07 03:12:29;;;;;;;1.20;1.20;;;;;;;6.14;100.00;99063.91;5073818;28;20200;-65
2023/12/07 03:25:59;;;;;;;1.60;1.60;;;;;;;6.08;100.00;99071.63;5073888;28;20210;-66
2023/12/07 03:31:20;;;;;;;1.20;1.20;;;;;;;6.05;100.00;99073.41;5070490;28;20679;-65
2023/12/07 03:34:00;;;;;;;1.00;1.00;;;;;;;6.01;100.00;99072.59;5073223;28;20200;-65
2023/12/07 03:39:22;;;;;;;2.47;2.27;;;;;;;5.94;100.00;99065.97;5066097;28;20583;-65
2023/12/07 03:41:53;;;;;;;1.20;1.20;;;;;;;5.94;100.00;99080.38;5073540;28;20575;-65
2023/12/07 03:49:54;;;;;;;1.17;1.17;;;;;;;5.93;100.00;99056.66;5055130;28;20257;-65
2023/12/07 03:55:13;;;;;;;1.50;1.40;;;;;;;5.92;100.00;99061.75;5070757;28;20208;-65
2023/12/07 03:57:48;;;;;;;1.73;0.93;;;;;;;5.93;100.00;99059.19;5070466;28;20287;-66
2023/12/07 04:03:09;;;;;;;1.20;1.20;;;;;;;5.87;100.00;99056.75;5073933;28;20204;-65
2023/12/07 04:11:49;;;;;;;1.00;1.00;;;;;;;5.88;100.00;99058.41;5071375;28;20204;-65
2023/12/07 04:14:20;;;;;;;1.33;1.33;;;;;;;5.88;100.00;99055.88;5073627;28;20237;-65
2023/12/07 04:16:56;;;;;;;1.20;1.20;;;;;;;5.88;100.00;99050.78;5074022;28;20594;-65
2023/12/07 04:19:25;;;;;;;1.47;1.47;;;;;;;5.86;100.00;99057.59;5072159;28;20198;-66
2023/12/07 04:22:29;;;;;;;1.50;1.50;;;;;;;5.86;100.00;99059.31;5072333;28;20196;-65
2023/12/07 04:28:05;;;;;;;1.37;1.37;;;;;;;5.82;100.00;99058.50;5069411;28;20210;-65
2023/12/07 04:30:38;;;;;;;0.70;0.70;;;;;;;5.81;100.00;99064.47;5072384;28;20207;-66
2023/12/07 04:33:14;;;;;;;1.50;1.50;;;;;;;5.78;100.00;99074.69;5072213;28;20196;-65
2023/12/07 04:35:48;;;;;;;1.90;1.90;;;;;;;5.73;100.00;99072.19;5072167;28;20565;-65
2023/12/07 04:38:46;;;;;;;3.17;1.03;;;;;;;5.69;100.00;99067.19;5069019;28;20227;-65
2023/12/07 04:41:47;;;;;;;1.57;1.47;;;;;;;5.63;100.00;99064.72;5001088;28;20621;-65
2023/12/07 04:44:39;;;;;;;0.57;0.57;;;;;;;5.59;100.00;99068.22;5030065;28;20205;-66
2023/12/07 04:53:14;;;;;;;1.43;1.43;;;;;;;5.45;100.00;99070.09;5070095;28;20216;-65
2023/12/07 04:55:51;;;;;;;0.97;0.97;;;;;;;5.47;100.00;99079.38;5075265;28;20219;-65
2023/12/07 04:58:22;;;;;;;1.90;1.83;;;;;;;5.47;100.00;99081.94;5068673;28;20215;-66
2023/12/07 05:06:34;;;;;;;1.60;1.60;;;;;;;5.48;100.00;99092.94;5074621;28;20199;-65
2023/12/07 05:09:09;;;;;;;1.03;0.83;;;;;;;5.43;100.00;99092.19;5072123;28;20192;-65
2023/12/07 05:11:47;;;;;;;1.70;1.70;;;;;;;5.46;100.00;99097.22;5069360;28;20199;-65
2023/12/07 05:14:21;;;;;;;1.37;1.37;;;;;;;5.27;100.00;99096.63;5070746;28;20291;-65
2023/12/07 05:17:11;;;;;;;0.83;0.83;;;;;;;5.03;100.00;99107.13;5070721;28;20649;-65
2023/12/07 05:19:47;;;;;;;1.20;1.20;;;;;;;4.92;100.00;99099.63;5067823;28;20204;-66
2023/12/07 05:33:35;;;;;;;1.63;1.53;;;;;;;4.94;100.00;99104.69;5069655;28;20207;-66
2023/12/07 05:39:07;;;;;;;1.43;1.43;;;;;;;5.04;100.00;99114.69;5063982;28;20204;-66
2023/12/07 05:44:22;;;;;;;0.60;0.60;;;;;;;5.09;100.00;99123.13;5067481;28;20196;-66
2023/12/07 05:47:03;;;;;;;0.70;0.70;;;;;;;5.06;100.00;99128.25;5070353;28;20196;-66
2023/12/07 05:52:31;;;;;;;1.10;1.10;;;;;;;4.97;100.00;99118.22;5065959;28;20210;-66
2023/12/07 05:55:06;;;;;;;2.10;2.00;;;;;;;5.09;100.00;99145.16;5071585;28;20196;-66
2023/12/07 05:57:42;;;;;;;1.20;1.20;;;;;;;5.10;100.00;99145.13;5070183;28;20663;-66
2023/12/07 06:00:25;;;;;;;1.07;1.07;;;;;;;5.08;100.00;99148.53;5070671;28;20198;-66
2023/12/07 06:02:59;;;;;;;1.13;1.13;;;;;;;5.07;100.00;99141.78;5070365;28;20235;-65
2023/12/07 06:05:43;;;;;;;1.40;1.40;;;;;;;5.03;100.00;99138.44;5071684;28;20195;-66
2023/12/07 06:13:37;;;;;;;0.80;0.80;;;;;;;5.09;100.00;99147.69;5068798;28;20671;-66
2023/12/07 06:16:22;;;;;;;0.90;0.90;;;;;;;4.89;100.00;99154.69;5071989;28;20659;-66
2023/12/07 06:19:05;;;;;;;0.80;0.80;;;;;;;4.89;100.00;99152.16;5072666;28;20671;-66
2023/12/07 06:21:51;;;;;;;0.70;0.70;;;;;;;4.89;100.00;99158.06;5074946;28;20270;-65
2023/12/07 06:24:26;;;;;;;1.20;1.20;;;;;;;4.95;100.00;99154.63;5080464;28;20687;-66
2023/12/07 06:26:55;;;;;;;0.77;0.77;;;;;;;4.98;100.00;99155.44;5075305;28;20196;-66
2023/12/07 06:32:28;;;;;;;1.20;1.20;;;;;;;4.98;100.00;99155.44;5066916;28;20579;-66
2023/12/07 06:35:06;;;;;;;1.03;1.03;;;;;;;5.00;100.00;99157.97;5068784;28;20241;-65
2023/12/07 06:37:59;;;;;;;1.13;1.13;;;;;;;5.10;100.00;99164.63;5070907;28;20564;-65
2023/12/07 06:40:33;;;;;;;1.63;1.63;;;;;;;5.18;100.00;99162.81;5066642;28;20215;-65
2023/12/07 06:43:09;;;;;;;1.70;1.70;;;;;;;5.22;100.00;99172.94;5067106;28;20199;-65
2023/12/07 06:54:13;;;;;;;0.77;0.77;;;;;;;5.42;100.00;99177.75;5057546;28;20210;-66
2023/12/07 06:57:13;;;;;;;2.03;2.03;;;;;;;5.42;100.00;99176.91;5069324;28;20206;-67
2023/12/07 06:59:47;;;;;;;0.77;0.77;;;;;;;5.42;100.00;99179.47;4993129;28;20299;-66
2023/12/07 07:02:23;;;;;;;0.60;0.60;;;;;;;5.39;100.00;99179.50;4994603;28;20230;-66
2023/12/07 07:04:57;;;;;;;0.83;0.83;;;;;;;5.34;100.00;99179.53;5052027;28;20702;-66
2023/12/07 07:07:30;;;;;;;0.90;0.90;;;;;;;5.31;100.00;99177.03;5066194;28;20204;-66
2023/12/07 07:10:23;;;;;;;0.73;0.73;;;;;;;5.28;100.00;99170.31;5068955;28;20292;-66
2023/12/07 07:15:49;;;;;;;0.67;0.67;;;;;;;5.32;100.00;99176.19;5065552;28;20210;-66
2023/12/07 07:18:25;;;;;;;1.47;1.47;;;;;;;5.32;100.00;99182.97;5062657;28;20204;-64
2023/12/07 07:20:54;;;;;;;1.00;1.00;;;;;;;5.28;100.00;99183.00;5065408;28;20204;-65
2023/12/07 07:26:36;;;;;;;1.43;1.43;;;;;;;5.09;100.00;99178.16;5008729;28;20219;-66
2023/12/07 07:29:14;;;;;;;0.80;0.80;;;;;;;5.11;100.00;99181.53;5060529;28;20251;-65
2023/12/07 07:31:49;;;;;;;0.80;0.80;;;;;;;5.14;100.00;99192.50;5066853;28;20695;-66
2023/12/07 07:34:33;;;;;;;1.20;1.20;;;;;;;5.25;100.00;99183.06;5067955;28;20199;-67
2023/12/07 07:37:08;;;;;;;1.37;1.37;;;;;;;5.27;100.00;99188.94;5076270;28;20790;-65
2023/12/07 07:39:41;;;;;;;1.33;1.33;;;;;;;5.20;100.00;99167.00;5070789;28;20211;-66
2023/12/07 07:42:27;;;;;;;0.80;0.80;;;;;;;5.31;100.00;99184.66;5068967;28;20629;-66
2023/12/07 07:47:43;;;;;;;3.13;2.97;;;;;;;5.45;100.00;99203.13;5062024;28;20667;-66
2023/12/07 07:50:11;;;;;;;6.65;4.95;;;;;;;5.43;100.00;99186.22;5073006;28;20435;-66
2023/12/07 07:55:27;;;;;;;5.93;1.77;;;;;;;5.70;100.00;99204.50;5059991;28;20212;-62
2023/12/07 07:58:30;;;;;;;2.23;1.87;;;;;;;5.90;100.00;99206.78;5072518;28;20569;-62
2023/12/07 08:01:16;;;;;;;2.97;2.90;;;;;;;6.04;100.00;99209.94;5068299;28;20199;-63
2023/12/07 08:03:55;;;;;;;1.53;1.53;;;;;;;6.11;100.00;99214.09;5072482;28;20596;-63
2023/12/07 08:06:34;;;;;;;1.30;1.30;;;;;;;6.06;100.00;99192.97;5070280;28;20192;-63
2023/12/07 08:09:10;;;;;;;3.70;1.87;;;;;;;6.24;100.00;99212.19;5072674;28;20208;-62
2023/12/07 08:14:43;;;;;;;1.37;1.27;;;;;;;6.32;100.00;99216.31;5074477;28;20210;-62
2023/12/07 08:26:28;;;;;;;1.53;1.53;;;;;;;6.51;100.00;99208.38;5069049;28;20227;-62
2023/12/07 08:28:57;;;;;;;13.43;1.27;;;;;;;6.51;100.00;99213.47;5071973;28;20616;-63
2023/12/07 08:31:24;;;;;;;0.93;0.93;;;;;;;6.32;100.00;99201.03;5070426;28;20215;-62
2023/12/07 08:33:53;;;;;;;1.47;1.47;;;;;;;6.51;100.00;99221.09;5072369;28;20226;-63
2023/12/07 08:36:19;;;;;;;1.20;1.20;;;;;;;6.59;100.00;99219.28;5072334;28;20228;-62
2023/12/07 08:38:46;;;;;;;4.13;2.47;;;;;;;6.60;100.00;99220.94;5074387;28;20553;-62
2023/12/07 08:41:13;;;;;;;1.70;1.60;;;;;;;6.59;100.00;99214.19;5071131;28;20257;-63
2023/12/07 08:43:39;;;;;;;2.03;1.97;;;;;;;6.75;100.00;99229.16;5072502;28;20249;-62
2023/12/07 08:46:07;;;;;;;1.33;1.33;;;;;;;6.83;100.00;99223.94;5078935;28;20641;-63
2023/12/07 08:48:34;;;;;;;2.83;1.47;;;;;;;6.82;100.00;99230.72;5071871;28;20283;-62
2023/12/07 08:51:03;;;;;;;0.90;0.90;;;;;;;6.91;100.00;99227.19;5068723;28;20260;-62
2023/12/07 08:53:30;;;;;;;1.47;1.37;;;;;;;7.00;100.00;99227.03;5071528;28;20199;-62
2023/12/07 08:55:57;;;;;;;1.17;1.17;;;;;;;7.12;100.00;99225.94;5072097;28;20253;-62
2023/12/07 08:58:24;;;;;;;1.27;1.27;;;;;;;7.15;100.00;99221.63;5070337;28;20204;-63
2023/12/07 09:00:52;;;;;;;1.30;1.30;;;;;;;7.15;100.00;99216.53;5071930;28;20200;-62
2023/12/07 09:03:18;;;;;;;0.90;0.90;;;;;;;7.26;100.00;99217.16;5072180;28;20200;-63
2023/12/07 09:05:45;;;;;;;1.70;1.60;;;;;;;7.33;100.00;99216.16;5071816;28;20199;-62
2023/12/07 09:08:13;;;;;;;2.23;1.53;;;;;;;7.37;100.00;99206.72;5072116;28;20245;-63
2023/12/07 09:10:40;;;;;;;1.33;1.33;;;;;;;7.48;100.00;99214.16;5070530;28;20215;-63
2023/12/07 09:13:07;;;;;;;1.37;1.27;;;;;;;7.48;100.00;99219.28;5072341;28;20231;-63
2023/12/07 09:15:37;;;;;;;1.70;1.67;;;;;;;7.51;100.00;99214.09;5078712;28;20736;-62
2023/12/07 09:18:03;;;;;;;1.50;1.40;;;;;;;7.50;100.00;99207.31;5074657;28;20200;-62
2023/12/07 09:20:30;;;;;;;5.27;1.40;;;;;;;7.65;100.00;99222.31;5071250;28;20188;-63
2023/12/07 09:22:57;;;;;;;1.57;1.57;;;;;;;7.75;100.00;99208.50;5072072;28;20651;-63
2023/12/07 09:25:27;;;;;;;3.40;1.43;;;;;;;7.87;100.00;99214.16;5071804;28;20626;-63
2023/12/07 09:27:54;;;;;;;1.63;1.53;;;;;;;7.93;100.00;99208.06;5071624;28;20199;-63
2023/12/07 09:30:21;;;;;;;0.83;0.83;;;;;;;8.01;100.00;99205.38;5071629;28;20234;-63
2023/12/07 09:32:48;;;;;;;1.70;1.60;;;;;;;8.08;100.00;99207.72;5071528;28;20200;-63
2023/12/07 09:35:18;;;;;;;3.60;0.93;;;;;;;8.20;100.00;99194.69;5071627;28;20196;-63
2023/12/07 09:37:45;;;;;;;1.80;1.53;;;;;;;8.36;100.00;99207.97;5071116;28;20686;-63
2023/12/07 09:40:17;;;;;;;2.00;1.17;;;;;;;8.32;100.00;99186.75;5071446;28;20253;-62
2023/12/07 09:42:45;;;;;;;1.17;0.80;;;;;;;8.30;100.00;99197.91;5070090;28;20275;-63
2023/12/07 09:45:12;;;;;;;1.43;1.40;;;;;;;8.38;100.00;99204.47;5071404;28;20255;-64
2023/12/07 09:47:40;;;;;;;1.83;1.60;;;;;;;8.30;100.00;99200.44;5072072;28;20203;-62
2023/12/07 09:50:09;;;;;;;1.27;1.10;;;;;;;8.38;100.00;99195.97;5071446;28;20613;-64
2023/12/07 09:52:35;;;;;;;2.13;1.67;;;;;;;8.41;100.00;99188.22;5070945;28;20261;-63
2023/12/07 09:55:03;;;;;;;1.27;1.27;;;;;;;8.49;100.00;99190.59;5071020;28;20258;-63
2023/12/07 09:57:31;;;;;;;2.47;1.67;;;;;;;8.52;100.00;99193.09;5070692;28;20196;-63
2023/12/07 09:59:59;;;;;;;2.27;2.17;;;;;;;8.64;100.00;99192.75;5071056;28;20257;-63
2023/12/07 10:02:26;;;;;;;2.30;2.20;;;;;;;8.67;100.00;99188.41;5071001;28;20192;-62
2023/12/07 10:05:05;;;;;;;2.73;2.63;;;;;;;8.75;100.00;99190.78;5070512;28;20250;-62
2023/12/07 10:07:35;;;;;;;2.40;2.30;;;;;;;8.75;100.00;99185.66;5070620;28;20199;-62
2023/12/07 10:10:03;;;;;;;1.50;1.47;;;;;;;8.78;100.00;99191.53;5070257;28;20199;-62
2023/12/07 10:12:29;;;;;;;1.87;1.87;;;;;;;8.72;100.00;99186.59;5066417;28;20273;-63
2023/12/07 10:14:56;;;;;;;3.83;1.63;;;;;;;8.69;100.00;99193.50;5067307;28;20249;-63
2023/12/07 10:17:24;;;;;;;1.17;1.13;;;;;;;8.52;100.00;99162.44;5068589;28;20255;-62
2023/12/07 10:20:09;;;;;;;1.80;1.80;;;;;;;8.73;100.00;99175.47;5072663;28;20238;-63
2023/12/07 10:22:36;;;;;;;1.80;1.70;;;;;;;8.84;100.00;99180.31;5065546;28;20295;-63
2023/12/07 10:25:03;;;;;;;3.70;1.67;;;;;;;8.91;100.00;99175.00;5063765;28;20634;-62
2023/12/07 10:27:30;;;;;;;2.87;1.17;;;;;;;9.02;100.00;99169.56;5068115;28;20204;-62
2023/12/07 10:30:00;;;;;;;5.07;1.60;;;;;;;9.04;100.00;99175.50;5067208;28;20261;-63
2023/12/07 10:32:28;;;;;;;1.30;1.30;;;;;;;9.10;100.00;99172.78;5064765;28;20258;-62
2023/12/07 10:34:58;;;;;;;1.00;1.00;;;;;;;9.22;100.00;99171.59;5067691;28;20203;-63
2023/12/07 10:37:25;;;;;;;1.20;1.13;;;;;;;9.29;100.00;99176.50;5068708;28;20224;-63
2023/12/07 10:39:52;;;;;;;1.03;1.03;;;;;;;9.32;100.00;99168.72;5061619;28;20669;-62
2023/12/07 10:42:23;;;;;;;0.87;0.87;;;;;;;9.31;100.00;99154.25;5066928;28;20269;-62
2023/12/07 10:44:54;;;;;;;2.97;2.87;;;;;;;9.56;100.00;99172.31;5067536;28;20286;-63
2023/12/07 10:47:22;;;;;;;4.33;2.70;;;;;;;9.67;100.00;99164.28;5065279;28;20200;-63
2023/12/07 10:49:55;;;;;;;1.63;1.53;;;;;;;9.64;100.00;99138.78;5070494;28;20228;-63
2023/12/07 10:52:25;;;;;;;1.40;1.40;;;;;;;9.73;100.00;99158.97;5071123;28;20219;-63
2023/12/07 10:55:01;;;;;;;3.13;0.93;;;;;;;9.77;100.00;99165.69;5070686;28;20630;-62
2023/12/07 10:57:29;;;;;;;1.27;1.27;;;;;;;9.80;100.00;99163.88;5070268;28;20207;-62
2023/12/07 10:59:58;;;;;;;2.80;1.53;;;;;;;9.81;100.00;99157.03;5073808;28;20629;-62
2023/12/07 11:02:27;;;;;;;2.33;2.17;;;;;;;9.78;100.00;99159.69;5070006;28;20203;-62
2023/12/07 11:04:57;;;;;;;1.37;1.27;;;;;;;9.83;100.00;99148.41;5070409;28;20257;-63
2023/12/07 11:07:28;;;;;;;1.37;1.07;;;;;;;9.91;100.00;99153.31;5070511;28;20192;-63
2023/12/07 11:10:04;;;;;;;1.13;1.10;;;;;;;9.97;100.00;99147.97;5071046;28;20211;-63
2023/12/07 11:12:40;;;;;;;1.37;1.33;;;;;;;10.02;100.00;99149.50;5072984;28;20215;-62
2023/12/07 11:15:08;;;;;;;0.63;0.63;;;;;;;10.03;100.00;99158.03;5073472;28;20675;-62
2023/12/07 11:17:50;;;;;;;2.13;1.93;;;;;;;10.03;100.00;99134.97;5074470;28;20203;-63
2023/12/07 11:20:21;;;;;;;10.57;2.10;;;;;;;10.00;100.00;99128.25;5073474;28;20200;-63
2023/12/07 11:22:49;;;;;;;0.90;0.90;;;;;;;10.23;100.00;99150.59;5072548;28;20700;-63
2023/12/07 11:25:16;;;;;;;1.23;1.23;;;;;;;10.19;100.00;99133.63;5073191;28;20196;-62
2023/12/07 11:27:47;;;;;;;1.27;1.27;;;;;;;10.36;100.00;99146.72;5074113;28;20192;-63
2023/12/07 11:30:15;;;;;;;1.50;1.40;;;;;;;10.39;100.00;99141.50;5073691;28;20640;-63
2023/12/07 11:32:42;;;;;;;1.03;1.03;;;;;;;10.41;100.00;99138.88;5074078;28;20212;-63
2023/12/07 11:35:13;;;;;;;1.43;1.33;;;;;;;10.34;100.00;99138.22;5071279;28;20741;-63
2023/12/07 11:38:11;;;;;;;1.70;1.60;;;;;;;10.40;100.00;99139.78;5073874;28;20281;-63
2023/12/07 11:40:39;;;;;;;1.87;1.63;;;;;;;10.44;100.00;99134.47;5016448;28;20250;-62
2023/12/07 11:43:06;;;;;;;3.07;1.13;;;;;;;10.46;100.00;99132.72;5072294;28;20259;-63
2023/12/07 11:45:40;;;;;;;2.17;2.00;;;;;;;10.50;100.00;99133.47;5072215;28;20200;-62
2023/12/07 11:48:18;;;;;;;2.67;1.83;;;;;;;10.53;100.00;99128.22;5071846;28;20286;-63
2023/12/07 11:50:58;;;;;;;1.53;1.03;;;;;;;10.46;100.00;99119.91;5072690;28;20199;-62
2023/12/07 11:53:28;;;;;;;3.77;1.43;;;;;;;10.53;100.00;99128.22;5072930;28;20196;-63
2023/12/07 11:55:55;;;;;;;1.50;1.37;;;;;;;10.54;100.00;99128.16;5073665;28;20203;-63
2023/12/07 11:58:22;;;;;;;7.80;1.47;;;;;;;10.59;100.00;99127.16;5073697;28;20200;-63
2023/12/07 12:00:48;;;;;;;1.23;1.23;;;;;;;10.61;100.00;99125.38;5073799;28;20196;-63
2023/12/07 12:03:15;;;;;;;1.50;1.50;;;;;;;10.44;100.00;99093.47;5073163;28;20188;-62
2023/12/07 12:05:43;;;;;;;1.07;1.07;;;;;;;10.65;100.00;99121.81;5073606;28;20192;-62
2023/12/07 12:08:11;;;;;;;1.67;1.50;;;;;;;10.72;100.00;99128.41;5073342;28;20567;-63
2023/12/07 12:10:42;;;;;;;1.90;1.80;;;;;;;10.68;100.00;99108.91;5072626;28;20218;-63
2023/12/07 12:13:09;;;;;;;4.43;1.30;;;;;;;10.74;100.00;99121.50;5072919;28;20695;-63
2023/12/07 12:15:36;;;;;;;1.27;1.17;;;;;;;10.78;100.00;99123.91;5071642;28;20200;-63
2023/12/07 12:18:03;;;;;;;3.00;2.30;;;;;;;10.86;100.00;99123.63;5075440;28;20925;-65
2023/12/07 12:20:30;;;;;;;2.30;2.10;;;;;;;11.03;100.00;99121.28;5073026;28;20583;-64
2023/12/07 12:22:57;;;;;;;1.40;1.33;;;;;;;11.10;100.00;99120.19;5072862;28;20200;-64
2023/12/07 12:25:25;;;;;;;1.50;1.50;;;;;;;11.04;100.00;99110.16;5071641;28;20265;-64
2023/12/07 12:27:54;;;;;;;5.67;1.57;;;;;;;11.14;100.00;99124.31;5071578;28;20188;-64
2023/12/07 12:30:22;;;;;;;1.40;1.37;;;;;;;11.16;100.00;99125.09;5073857;28;20717;-64
2023/12/07 12:32:50;;;;;;;1.30;1.23;;;;;;;11.22;100.00;99124.84;5073277;28;20207;-64
2023/12/07 12:35:17;;;;;;;2.10;1.50;;;;;;;11.28;100.00;99109.22;5072159;28;20222;-64
2023/12/07 12:37:44;;;;;;;1.70;1.60;;;;;;;11.34;100.00;99114.13;5073589;28;20690;-64
2023/12/07 12:40:13;;;;;;;1.63;1.53;;;;;;;11.37;100.00;99110.63;5071234;28;20258;-64
2023/12/07 12:42:40;;;;;;;5.97;2.00;;;;;;;11.41;100.00;99115.56;5072606;28;20261;-64
2023/12/07 12:45:10;;;;;;;1.67;1.57;;;;;;;11.37;100.00;99097.81;5072685;28;20204;-64
2023/12/07 12:47:37;;;;;;;1.33;1.23;;;;;;;11.47;100.00;99117.91;5072461;28;20200;-64
2023/12/07 12:50:05;;;;;;;1.83;1.73;;;;;;;11.57;100.00;99115.81;5074833;28;20204;-64
2023/12/07 12:52:32;;;;;;;2.87;1.60;;;;;;;11.63;100.00;99119.91;5073136;28;20756;-65
2023/12/07 12:54:58;;;;;;;1.37;1.27;;;;;;;11.68;100.00;99120.53;5073353;28;20192;-65
2023/12/07 12:57:25;;;;;;;1.07;1.07;;;;;;;11.71;100.00;99121.28;5072692;28;20250;-65
2023/12/07 12:59:52;;;;;;;1.30;1.30;;;;;;;11.76;100.00;99116.00;5071347;28;20580;-65
2023/12/07 13:02:21;;;;;;;1.33;1.33;;;;;;;11.63;100.00;99091.66;5071727;28;20192;-65
2023/12/07 13:04:48;;;;;;;1.47;1.37;;;;;;;11.83;100.00;99117.41;5073046;28;20257;-66
2023/12/07 13:07:15;;;;;;;1.90;1.80;;;;;;;11.83;100.00;99118.25;5068098;28;20208;-65
2023/12/07 13:09:43;;;;;;;1.30;1.30;;;;;;;11.86;100.00;99127.53;5070973;28;20689;-66
2023/12/07 13:12:10;;;;;;;1.53;1.53;;;;;;;11.68;100.00;99097.44;5071667;28;20697;-66
2023/12/07 13:14:38;;;;;;;1.90;1.37;;;;;;;11.88;100.00;99115.50;5071565;28;20200;-65
2023/12/07 13:17:07;;;;;;;1.70;1.60;;;;;;;11.90;100.00;99118.84;5071013;28;20196;-65
2023/12/07 13:19:35;;;;;;;1.27;1.27;;;;;;;11.89;100.00;99128.25;5072919;28;20286;-65
2023/12/07 13:22:03;;;;;;;1.83;1.73;;;;;;;11.88;100.00;99126.63;5073164;28;20625;-65
2023/12/07 13:24:29;;;;;;;1.70;1.70;;;;;;;11.90;100.00;99129.09;5073529;28;20552;-64
2023/12/07 13:26:57;;;;;;;1.93;1.83;;;;;;;11.91;100.00;99130.78;5073425;28;20204;-64
2023/12/07 13:29:24;;;;;;;1.47;1.00;;;;;;;11.89;100.00;99128.25;5071798;28;20196;-64
2023/12/07 13:31:51;;;;;;;3.40;1.60;;;;;;;11.89;100.00;99130.84;5070870;28;20266;-66
2023/12/07 13:34:18;;;;;;;2.30;2.20;;;;;;;11.92;100.00;99137.59;5071806;28;20192;-64
2023/12/07 13:36:46;;;;;;;1.67;1.67;;;;;;;11.91;100.00;99135.94;5071499;28;20220;-64
2023/12/07 13:39:13;;;;;;;1.40;1.33;;;;;;;11.87;100.00;99139.50;5071469;28;20635;-64
2023/12/07 13:41:41;;;;;;;1.83;1.73;;;;;;;11.80;100.00;99132.94;5073557;28;20200;-64
2023/12/07 13:44:07;;;;;;;2.97;2.77;;;;;;;11.83;100.00;99132.81;5071201;28;20553;-66
2023/12/07 13:46:34;;;;;;;1.80;1.70;;;;;;;11.83;100.00;99137.94;5071442;28;20196;-63
2023/12/07 13:49:01;;;;;;;3.27;2.00;;;;;;;11.80;100.00;99138.06;5070914;28;20254;-65
2023/12/07 13:51:27;;;;;;;2.27;1.87;;;;;;;11.80;100.00;99143.19;5071360;28;20261;-64
2023/12/07 13:53:56;;;;;;;2.40;2.00;;;;;;;11.72;100.00;99140.13;5071370;28;20212;-66
2023/12/07 13:56:23;;;;;;;2.27;2.07;;;;;;;11.66;100.00;99146.28;5071039;28;20214;-65
2023/12/07 13:58:51;;;;;;;1.80;1.70;;;;;;;11.65;100.00;99146.34;5070406;28;20979;-65
2023/12/07 14:01:17;;;;;;;2.37;2.27;;;;;;;11.60;100.00;99141.38;5071235;28;20200;-65
2023/12/07 14:03:44;;;;;;;1.93;1.83;;;;;;;11.57;100.00;99149.19;5071480;28;20253;-63
2023/12/07 14:06:12;;;;;;;2.37;2.17;;;;;;;11.56;100.00;99145.81;5072135;28;20257;-65
2023/12/07 14:08:39;;;;;;;2.23;2.03;;;;;;;11.53;100.00;99153.59;5071044;28;20211;-66
2023/12/07 14:11:07;;;;;;;2.17;2.07;;;;;;;11.60;100.00;99154.22;5071239;28;20257;-66
2023/12/07 14:13:33;;;;;;;1.57;1.57;;;;;;;11.58;100.00;99154.28;5072748;28;20273;-65
2023/12/07 14:16:00;;;;;;;1.03;1.00;;;;;;;11.55;100.00;99156.13;5070598;28;20242;-64
2023/12/07 14:18:27;;;;;;;1.73;1.63;;;;;;;11.52;100.00;99164.78;5072246;28;20557;-64
2023/12/07 14:20:54;;;;;;;2.33;2.13;;;;;;;11.47;100.00;99166.66;5069908;28;20203;-64
2023/12/07 14:23:20;;;;;;;1.80;1.70;;;;;;;11.36;100.00;99150.00;5072745;28;20212;-64
2023/12/07 14:25:48;;;;;;;1.47;1.23;;;;;;;11.47;100.00;99166.66;5070927;28;20641;-65
2023/12/07 14:28:17;;;;;;;1.70;1.60;;;;;;;11.46;100.00;99179.59;5071037;28;20587;-64
2023/12/07 14:30:43;;;;;;;2.00;1.90;;;;;;;11.45;100.00;99168.47;5070525;28;20196;-63